createdAt,value
2018-12-22T00:00:46.060Z,10.15
2018-12-22T00:01:46.052Z,10.12
2018-12-22T00:02:46.048Z,10.19
2018-12-22T00:03:46.046Z,10.18
2018-12-22T00:04:46.045Z,10.12
2018-12-22T00:05:46.040Z,10.21
2018-12-22T00:06:46.035Z,10.25
2018-12-22T00:07:46.076Z,10.28
2018-12-22T00:08:46.030Z,10.25
2018-12-22T00:09:46.024Z,10.12
2018-12-22T00:10:46.025Z,10.12
2018-12-22T00:11:46.019Z,10.19
2018-12-22T00:12:46.014Z,10.07
2018-12-22T00:13:46.013Z,9.97
2018-12-22T00:14:46.007Z,9.97
2018-12-22T00:15:46.001Z,9.93
2018-12-22T00:16:45.999Z,9.89
2018-12-22T00:17:46.005Z,9.89
2018-12-22T00:18:45.995Z,9.99
2018-12-22T00:19:45.987Z,9.94
2018-12-22T00:20:45.985Z,10.06
2018-12-22T00:21:45.983Z,10.01
2018-12-22T00:22:45.983Z,10.04
2018-12-22T00:23:45.979Z,10.17
2018-12-22T00:24:45.989Z,10.04
2018-12-22T00:25:46.004Z,9.99
2018-12-22T00:26:45.963Z,9.94
2018-12-22T00:27:45.960Z,9.97
2018-12-22T00:28:45.955Z,9.93
2018-12-22T00:29:46.061Z,9.91
2018-12-22T00:30:45.949Z,10.03
2018-12-22T00:31:45.948Z,9.99
2018-12-22T00:32:45.961Z,10.00
2018-12-22T00:33:45.943Z,9.93
2018-12-22T00:34:45.936Z,9.88
2018-12-22T00:35:45.932Z,9.86
2018-12-22T00:36:45.930Z,9.97
2018-12-22T00:37:45.929Z,9.99
2018-12-22T00:38:45.919Z,9.88
2018-12-22T00:39:45.917Z,9.85
2018-12-22T00:40:45.914Z,9.89
2018-12-22T00:41:45.975Z,9.81
2018-12-22T00:42:45.917Z,9.94
2018-12-22T00:43:45.902Z,9.96
2018-12-22T00:44:45.898Z,10.00
2018-12-22T00:45:45.895Z,9.91
2018-12-22T00:46:45.891Z,10.03
2018-12-22T00:47:45.898Z,10.03
2018-12-22T00:48:45.887Z,10.21
2018-12-22T00:49:45.880Z,10.21
2018-12-22T00:50:45.878Z,10.14
2018-12-22T00:51:45.875Z,10.07
2018-12-22T00:52:45.871Z,10.18
2018-12-22T00:53:45.869Z,10.14
2018-12-22T00:54:45.864Z,10.04
2018-12-22T00:55:45.858Z,10.10
2018-12-22T00:56:45.854Z,10.01
2018-12-22T00:57:45.853Z,9.99
2018-12-22T00:58:45.852Z,10.04
2018-12-22T00:59:45.845Z,10.04
2018-12-22T01:00:45.842Z,10.01
2018-12-22T01:01:45.838Z,9.96
2018-12-22T01:02:45.834Z,9.96
2018-12-22T01:03:45.831Z,9.94
2018-12-22T01:04:45.840Z,9.97
2018-12-22T01:05:45.822Z,9.99
2018-12-22T01:06:45.819Z,9.99
2018-12-22T01:07:45.816Z,9.96
2018-12-22T01:08:45.812Z,9.99
2018-12-22T01:09:45.809Z,9.96
2018-12-22T01:10:45.812Z,9.99
2018-12-22T01:11:45.804Z,9.96
2018-12-22T01:12:45.796Z,9.93
2018-12-22T01:13:45.823Z,9.83
2018-12-22T01:14:45.795Z,9.85
2018-12-22T01:15:45.784Z,9.85
2018-12-22T01:16:45.784Z,9.81
2018-12-22T01:17:45.807Z,9.83
2018-12-22T01:18:45.774Z,9.81
2018-12-22T01:19:45.769Z,9.79
2018-12-22T01:20:45.768Z,9.86
2018-12-22T01:21:45.773Z,9.79
2018-12-22T01:22:45.762Z,9.81
2018-12-22T01:23:45.754Z,9.73
2018-12-22T01:24:45.752Z,9.79
2018-12-22T01:25:45.747Z,9.78
2018-12-22T01:26:45.747Z,9.75
2018-12-22T01:27:45.738Z,9.71
2018-12-22T01:28:45.751Z,9.86
2018-12-22T01:29:45.732Z,9.73
2018-12-22T01:30:45.727Z,9.78
2018-12-22T01:31:45.725Z,9.81
2018-12-22T01:32:45.720Z,9.89
2018-12-22T01:33:45.718Z,9.83
2018-12-22T01:34:45.713Z,9.81
2018-12-22T01:35:45.729Z,9.82
2018-12-22T01:36:45.707Z,9.81
2018-12-22T01:37:45.719Z,9.78
2018-12-22T01:38:45.697Z,9.75
2018-12-22T01:39:45.698Z,9.81
2018-12-22T01:40:45.691Z,9.81
2018-12-22T01:41:45.688Z,9.75
2018-12-22T01:42:45.683Z,9.78
2018-12-22T01:43:45.678Z,9.79
2018-12-22T01:44:45.673Z,9.71
2018-12-22T01:45:45.671Z,9.75
2018-12-22T01:46:45.670Z,9.64
2018-12-22T01:47:45.662Z,9.67
2018-12-22T01:48:45.663Z,9.71
2018-12-22T01:49:45.666Z,9.70
2018-12-22T01:50:45.659Z,9.63
2018-12-22T01:51:45.650Z,9.70
2018-12-22T01:52:45.644Z,9.68
2018-12-22T01:53:45.645Z,9.82
2018-12-22T01:54:45.634Z,9.82
2018-12-22T01:55:45.631Z,9.83
2018-12-22T01:56:45.631Z,9.79
2018-12-22T01:57:45.640Z,9.78
2018-12-22T01:58:47.955Z,9.78
2018-12-22T01:59:45.620Z,9.85
2018-12-22T02:00:45.648Z,9.81
2018-12-22T02:01:45.608Z,9.85
2018-12-22T02:02:45.609Z,9.86
2018-12-22T02:03:45.601Z,9.94
2018-12-22T02:04:45.599Z,9.81
2018-12-22T02:05:45.596Z,9.82
2018-12-22T02:06:45.590Z,9.81
2018-12-22T02:07:45.592Z,9.83
2018-12-22T02:08:45.582Z,9.91
2018-12-22T02:09:45.578Z,9.91
2018-12-22T02:10:45.573Z,9.79
2018-12-22T02:11:45.574Z,9.86
2018-12-22T02:12:45.569Z,9.78
2018-12-22T02:13:45.570Z,9.73
2018-12-22T02:14:45.561Z,9.79
2018-12-22T02:15:45.556Z,9.64
2018-12-22T02:16:45.565Z,9.67
2018-12-22T02:17:45.554Z,9.53
2018-12-22T02:18:45.546Z,9.43
2018-12-22T02:19:45.544Z,9.40
2018-12-22T02:20:45.545Z,9.45
2018-12-22T02:21:45.533Z,9.32
2018-12-22T02:22:45.528Z,9.30
2018-12-22T02:23:45.524Z,9.34
2018-12-22T02:24:45.523Z,9.30
2018-12-22T02:25:45.538Z,9.27
2018-12-22T02:26:45.514Z,9.15
2018-12-22T02:27:45.512Z,9.16
2018-12-22T02:28:45.504Z,9.15
2018-12-22T02:29:45.534Z,9.15
2018-12-22T02:30:45.497Z,9.16
2018-12-22T02:31:45.494Z,9.21
2018-12-22T02:32:45.503Z,9.09
2018-12-22T02:33:45.486Z,9.21
2018-12-22T02:34:45.482Z,9.15
2018-12-22T02:35:45.485Z,9.18
2018-12-22T02:36:45.481Z,9.25
2018-12-22T02:37:45.471Z,9.24
2018-12-22T02:38:45.465Z,9.25
2018-12-22T02:39:45.469Z,9.23
2018-12-22T02:40:47.263Z,9.18
2018-12-22T02:41:45.455Z,9.15
2018-12-22T02:42:45.449Z,9.12
2018-12-22T02:43:45.447Z,9.16
2018-12-22T02:44:45.440Z,9.23
2018-12-22T02:45:45.436Z,9.25
2018-12-22T02:46:45.432Z,9.27
2018-12-22T02:47:45.432Z,9.24
2018-12-22T02:48:45.424Z,9.28
2018-12-22T02:49:45.425Z,9.16
2018-12-22T02:50:45.422Z,9.24
2018-12-22T02:51:45.412Z,9.15
2018-12-22T02:52:45.411Z,9.18
2018-12-22T02:53:45.403Z,9.13
2018-12-22T02:54:45.401Z,9.20
2018-12-22T02:55:45.396Z,9.25
2018-12-22T02:56:45.400Z,9.18
2018-12-22T02:57:45.390Z,9.18
2018-12-22T02:58:45.445Z,9.23
2018-12-22T02:59:45.379Z,9.12
2018-12-22T03:00:45.381Z,9.16
2018-12-22T03:01:45.403Z,9.28
2018-12-22T03:02:45.370Z,9.20
2018-12-22T03:03:45.511Z,9.23
2018-12-22T03:04:45.369Z,9.15
2018-12-22T03:05:45.373Z,9.12
2018-12-22T03:06:45.353Z,9.13
2018-12-22T03:07:45.366Z,9.12
2018-12-22T03:08:45.370Z,9.21
2018-12-22T03:09:45.348Z,9.18
2018-12-22T03:10:45.349Z,9.13
2018-12-22T03:11:45.329Z,9.15
2018-12-22T03:12:45.340Z,9.15
2018-12-22T03:13:45.350Z,9.16
2018-12-22T03:14:45.317Z,9.15
2018-12-22T03:15:45.312Z,9.21
2018-12-22T03:16:45.309Z,9.16
2018-12-22T03:17:45.306Z,9.28
2018-12-22T03:18:45.317Z,9.25
2018-12-22T03:19:45.294Z,9.15
2018-12-22T03:20:45.290Z,9.25
2018-12-22T03:21:45.291Z,9.23
2018-12-22T03:22:45.304Z,9.09
2018-12-22T03:23:45.282Z,9.15
2018-12-22T03:24:45.274Z,9.15
2018-12-22T03:25:45.274Z,9.16
2018-12-22T03:26:45.275Z,9.13
2018-12-22T03:27:45.262Z,9.10
2018-12-22T03:28:45.276Z,9.18
2018-12-22T03:29:45.254Z,9.12
2018-12-22T03:30:45.259Z,9.15
2018-12-22T03:31:45.244Z,9.15
2018-12-22T03:32:45.242Z,9.16
2018-12-22T03:33:45.237Z,9.23
2018-12-22T03:34:45.233Z,9.16
2018-12-22T03:35:45.235Z,9.24
2018-12-22T03:36:45.223Z,9.21
2018-12-22T03:37:45.221Z,9.15
2018-12-22T03:38:45.215Z,9.30
2018-12-22T03:39:45.234Z,9.24
2018-12-22T03:40:45.207Z,9.27
2018-12-22T03:41:45.205Z,9.27
2018-12-22T03:42:45.198Z,9.32
2018-12-22T03:43:45.192Z,9.15
2018-12-22T03:44:45.189Z,9.25
2018-12-22T03:45:45.186Z,9.23
2018-12-22T03:46:45.180Z,9.15
2018-12-22T03:47:45.178Z,9.18
2018-12-22T03:48:45.173Z,9.12
2018-12-22T03:49:45.172Z,9.23
2018-12-22T03:50:45.180Z,9.15
2018-12-22T03:51:45.172Z,9.27
2018-12-22T03:52:45.156Z,9.23
2018-12-22T03:53:45.151Z,9.25
2018-12-22T03:54:45.147Z,9.27
2018-12-22T03:55:45.146Z,9.35
2018-12-22T03:56:45.151Z,9.40
2018-12-22T03:57:45.134Z,9.35
2018-12-22T03:58:45.130Z,9.34
2018-12-22T03:59:45.128Z,9.38
2018-12-22T04:00:45.121Z,9.39
2018-12-22T04:01:45.141Z,9.39
2018-12-22T04:02:45.114Z,9.34
2018-12-22T04:03:45.107Z,9.25
2018-12-22T04:04:45.112Z,9.34
2018-12-22T04:05:45.100Z,9.25
2018-12-22T04:06:45.101Z,9.24
2018-12-22T04:07:45.111Z,9.34
2018-12-22T04:08:45.091Z,9.39
2018-12-22T04:09:45.083Z,9.32
2018-12-22T04:10:45.078Z,9.35
2018-12-22T04:11:45.074Z,9.40
2018-12-22T04:12:45.069Z,9.43
2018-12-22T04:13:45.071Z,9.42
2018-12-22T04:14:45.071Z,9.48
2018-12-22T04:15:45.088Z,9.45
2018-12-22T04:16:45.068Z,9.43
2018-12-22T04:17:45.050Z,9.42
2018-12-22T04:18:45.086Z,9.57
2018-12-22T04:19:45.062Z,9.45
2018-12-22T04:20:45.056Z,9.42
2018-12-22T04:21:45.035Z,9.58
2018-12-22T04:22:45.028Z,9.46
2018-12-22T04:23:45.047Z,9.53
2018-12-22T04:24:45.027Z,9.53
2018-12-22T04:25:45.015Z,9.45
2018-12-22T04:26:45.018Z,9.45
2018-12-22T04:27:45.017Z,9.45
2018-12-22T04:28:45.008Z,9.38
2018-12-22T04:29:45.002Z,9.38
2018-12-22T04:30:45.004Z,9.38
2018-12-22T04:31:44.998Z,9.31
2018-12-22T04:32:44.987Z,9.35
2018-12-22T04:33:44.984Z,9.38
2018-12-22T04:34:44.985Z,9.31
2018-12-22T04:35:44.981Z,9.25
2018-12-22T04:36:45.000Z,9.39
2018-12-22T04:37:44.983Z,9.30
2018-12-22T04:38:44.963Z,9.27
2018-12-22T04:39:44.974Z,9.27
2018-12-22T04:40:44.957Z,9.30
2018-12-22T04:41:44.955Z,9.28
2018-12-22T04:42:44.947Z,9.23
2018-12-22T04:43:45.059Z,9.31
2018-12-22T04:44:44.937Z,9.21
2018-12-22T04:45:44.933Z,9.30
2018-12-22T04:46:44.963Z,9.23
2018-12-22T04:47:44.930Z,9.23
2018-12-22T04:48:44.923Z,9.24
2018-12-22T04:49:44.915Z,9.23
2018-12-22T04:50:44.919Z,9.25
2018-12-22T04:51:44.932Z,9.25
2018-12-22T04:52:44.920Z,9.42
2018-12-22T04:53:44.915Z,9.46
2018-12-22T04:54:44.895Z,9.39
2018-12-22T04:55:44.891Z,9.38
2018-12-22T04:56:44.890Z,9.42
2018-12-22T04:57:44.882Z,9.42
2018-12-22T04:58:44.878Z,9.45
2018-12-22T04:59:44.881Z,9.45
2018-12-22T05:00:44.872Z,9.42
2018-12-22T05:01:44.877Z,9.46
2018-12-22T05:02:44.860Z,9.53
2018-12-22T05:03:44.869Z,9.40
2018-12-22T05:04:44.855Z,9.48
2018-12-22T05:05:44.868Z,9.43
2018-12-22T05:06:44.844Z,9.39
2018-12-22T05:07:44.847Z,9.43
2018-12-22T05:08:44.837Z,9.40
2018-12-22T05:09:44.844Z,9.40
2018-12-22T05:10:44.853Z,9.45
2018-12-22T05:11:44.852Z,9.42
2018-12-22T05:12:44.838Z,9.46
2018-12-22T05:13:44.818Z,9.40
2018-12-22T05:14:44.839Z,9.38
2018-12-22T05:15:44.830Z,9.48
2018-12-22T05:16:44.804Z,9.49
2018-12-22T05:17:44.803Z,9.48
2018-12-22T05:18:44.798Z,9.43
2018-12-22T05:19:44.790Z,9.39
2018-12-22T05:20:44.790Z,9.40
2018-12-22T05:21:44.789Z,9.43
2018-12-22T05:22:44.779Z,9.46
2018-12-22T05:23:44.780Z,9.40
2018-12-22T05:24:44.770Z,9.56
2018-12-22T05:25:44.770Z,9.42
2018-12-22T05:26:44.762Z,9.43
2018-12-22T05:27:45.695Z,9.40
2018-12-22T05:28:44.755Z,9.40
2018-12-22T05:29:51.863Z,9.46
2018-12-22T05:30:44.748Z,9.48
2018-12-22T05:31:44.743Z,9.53
2018-12-22T05:32:44.739Z,9.46
2018-12-22T05:33:44.735Z,9.56
2018-12-22T05:34:44.738Z,9.52
2018-12-22T05:35:44.727Z,9.50
2018-12-22T05:36:44.721Z,9.57
2018-12-22T05:37:44.720Z,9.42
2018-12-22T05:38:44.713Z,9.43
2018-12-22T05:39:44.710Z,9.43
2018-12-22T05:40:44.720Z,9.56
2018-12-22T05:41:44.712Z,9.39
2018-12-22T05:42:44.696Z,9.50
2018-12-22T05:43:44.698Z,9.45
2018-12-22T05:44:44.694Z,9.42
2018-12-22T05:45:44.688Z,9.38
2018-12-22T05:46:44.680Z,9.40
2018-12-22T05:47:44.694Z,9.42
2018-12-22T05:48:44.674Z,9.48
2018-12-22T05:49:44.669Z,9.48
2018-12-22T05:50:44.672Z,9.46
2018-12-22T05:51:44.661Z,9.48
2018-12-22T05:52:44.661Z,9.40
2018-12-22T05:53:44.653Z,9.39
2018-12-22T05:54:44.649Z,9.45
2018-12-22T05:55:44.646Z,9.34
2018-12-22T05:56:44.645Z,9.35
2018-12-22T05:57:44.640Z,9.38
2018-12-22T05:58:44.646Z,9.38
2018-12-22T05:59:44.628Z,9.35
2018-12-22T06:00:44.624Z,9.27
2018-12-22T06:01:44.620Z,9.24
2018-12-22T06:02:44.622Z,9.23
2018-12-22T06:03:44.612Z,9.16
2018-12-22T06:04:44.613Z,9.27
2018-12-22T06:05:44.603Z,9.28
2018-12-22T06:06:44.602Z,9.21
2018-12-22T06:07:44.595Z,9.23
2018-12-22T06:08:44.594Z,9.15
2018-12-22T06:09:44.595Z,9.21
2018-12-22T06:10:44.583Z,9.28
2018-12-22T06:11:44.580Z,9.18
2018-12-22T06:12:44.578Z,9.21
2018-12-22T06:13:44.601Z,9.21
2018-12-22T06:14:44.565Z,9.23
2018-12-22T06:15:44.579Z,9.27
2018-12-22T06:16:44.559Z,9.23
2018-12-22T06:17:44.566Z,9.23
2018-12-22T06:18:44.549Z,9.23
2018-12-22T06:19:44.551Z,9.30
2018-12-22T06:20:44.543Z,9.24
2018-12-22T06:21:44.564Z,9.21
2018-12-22T06:22:44.537Z,9.12
2018-12-22T06:23:44.528Z,9.10
2018-12-22T06:24:44.526Z,9.05
2018-12-22T06:25:44.525Z,9.09
2018-12-22T06:26:44.516Z,8.90
2018-12-22T06:27:44.532Z,8.96
2018-12-22T06:28:44.512Z,8.87
2018-12-22T06:29:44.516Z,8.88
2018-12-22T06:30:44.502Z,8.79
2018-12-22T06:31:44.496Z,8.81
2018-12-22T06:32:44.491Z,8.73
2018-12-22T06:33:44.494Z,8.73
2018-12-22T06:34:44.480Z,8.73
2018-12-22T06:35:44.482Z,8.78
2018-12-22T06:36:45.202Z,8.71
2018-12-22T06:37:44.473Z,8.76
2018-12-22T06:38:44.474Z,8.60
2018-12-22T06:39:44.463Z,8.63
2018-12-22T06:40:44.460Z,8.68
2018-12-22T06:41:44.454Z,8.69
2018-12-22T06:42:44.452Z,8.73
2018-12-22T06:43:44.461Z,8.73
2018-12-22T06:44:44.441Z,8.71
2018-12-22T06:45:44.447Z,8.65
2018-12-22T06:46:44.430Z,8.63
2018-12-22T06:47:44.427Z,8.66
2018-12-22T06:48:44.422Z,8.63
2018-12-22T06:49:44.418Z,8.66
2018-12-22T06:50:44.414Z,8.53
2018-12-22T06:51:44.410Z,8.72
2018-12-22T06:52:44.405Z,8.72
2018-12-22T06:53:44.410Z,8.53
2018-12-22T06:54:44.406Z,8.53
2018-12-22T06:55:44.390Z,8.54
2018-12-22T06:56:44.388Z,8.68
2018-12-22T06:57:44.383Z,8.62
2018-12-22T06:58:44.379Z,8.75
2018-12-22T06:59:44.374Z,8.66
2018-12-22T07:00:44.378Z,8.73
2018-12-22T07:01:44.365Z,8.65
2018-12-22T07:02:44.361Z,8.75
2018-12-22T07:03:44.368Z,8.75
2018-12-22T07:04:44.353Z,8.83
2018-12-22T07:05:44.351Z,8.79
2018-12-22T07:06:44.343Z,8.83
2018-12-22T07:07:44.341Z,8.87
2018-12-22T07:08:44.364Z,8.88
2018-12-22T07:09:44.328Z,8.88
2018-12-22T07:10:44.330Z,8.88
2018-12-22T07:11:44.321Z,8.94
2018-12-22T07:12:44.338Z,8.93
2018-12-22T07:13:44.311Z,8.94
2018-12-22T07:14:44.307Z,8.86
2018-12-22T07:15:44.317Z,8.88
2018-12-22T07:16:44.302Z,8.87
2018-12-22T07:17:51.726Z,9.01
2018-12-22T07:19:37.206Z,8.96
2018-12-22T07:20:37.185Z,9.01
2018-12-22T07:22:30.657Z,9.16
2018-12-22T07:23:30.598Z,9.12
2018-12-22T07:25:24.084Z,9.27
2018-12-22T07:26:24.033Z,9.20
2018-12-22T07:28:16.912Z,9.12
2018-12-22T07:29:17.009Z,9.12
2018-12-22T07:31:09.898Z,9.15
2018-12-22T07:32:09.744Z,9.13
2018-12-22T07:34:02.632Z,9.31
2018-12-22T07:35:02.591Z,9.25
2018-12-22T07:36:55.503Z,9.31
2018-12-22T07:37:55.453Z,9.23
2018-12-22T07:39:48.430Z,9.16
2018-12-22T07:40:48.328Z,9.12
2018-12-22T07:42:41.219Z,9.05
2018-12-22T07:43:41.194Z,9.06
2018-12-22T07:45:34.082Z,9.01
2018-12-22T07:46:34.074Z,8.97
2018-12-22T07:48:27.673Z,8.97
2018-12-22T07:49:27.506Z,8.99
2018-12-22T07:51:21.488Z,8.99
2018-12-22T07:52:21.491Z,8.97
2018-12-22T07:54:15.351Z,9.04
2018-12-22T07:55:15.421Z,9.02
2018-12-22T07:57:08.223Z,9.06
2018-12-22T07:58:08.202Z,9.13
2018-12-22T08:00:01.169Z,9.20
2018-12-22T08:01:01.051Z,9.20
2018-12-22T08:02:53.995Z,9.13
2018-12-22T08:03:53.937Z,9.18
2018-12-22T08:05:46.856Z,9.10
2018-12-22T08:06:46.808Z,9.21
2018-12-22T08:07:46.804Z,9.21
2018-12-22T08:08:46.871Z,9.30
2018-12-22T08:09:46.797Z,9.30
2018-12-22T08:10:46.789Z,9.28
2018-12-22T08:11:46.790Z,9.25
2018-12-22T08:12:46.778Z,9.23
2018-12-22T08:13:46.775Z,9.32
2018-12-22T08:14:46.770Z,9.35
2018-12-22T08:15:46.766Z,9.45
2018-12-22T08:16:46.760Z,9.48
2018-12-22T08:17:46.760Z,9.32
2018-12-22T08:18:46.756Z,9.35
2018-12-22T08:19:46.747Z,9.46
2018-12-22T08:20:46.747Z,9.49
2018-12-22T08:21:46.762Z,9.43
2018-12-22T08:22:46.752Z,9.46
2018-12-22T08:23:46.750Z,9.46
2018-12-22T08:24:46.888Z,9.42
2018-12-22T08:25:46.711Z,9.45
2018-12-22T08:26:46.709Z,9.49
2018-12-22T08:27:46.713Z,9.48
2018-12-22T08:28:46.696Z,9.42
2018-12-22T08:29:46.695Z,9.45
2018-12-22T08:30:46.690Z,9.42
2018-12-22T08:31:46.690Z,9.49
2018-12-22T08:32:46.689Z,9.56
2018-12-22T08:33:46.680Z,9.52
2018-12-22T08:34:46.671Z,9.56
2018-12-22T08:35:46.673Z,9.50
2018-12-22T08:36:46.663Z,9.45
2018-12-22T08:37:46.660Z,9.53
2018-12-22T08:38:46.675Z,9.57
2018-12-22T08:39:46.655Z,9.52
2018-12-22T08:40:46.652Z,9.53
2018-12-22T08:41:46.644Z,9.49
2018-12-22T08:42:46.643Z,9.50
2018-12-22T08:43:46.646Z,9.56
2018-12-22T08:44:46.635Z,9.56
2018-12-22T08:45:46.627Z,9.52
2018-12-22T08:46:46.629Z,9.45
2018-12-22T08:47:46.631Z,9.50
2018-12-22T08:48:46.619Z,9.42
2018-12-22T08:49:46.618Z,9.49
2018-12-22T08:50:46.609Z,9.49
2018-12-22T08:51:46.611Z,9.53
2018-12-22T08:52:46.602Z,9.53
2018-12-22T08:53:46.598Z,9.50
2018-12-22T08:54:46.600Z,9.53
2018-12-22T08:55:46.593Z,9.57
2018-12-22T08:56:46.606Z,9.56
2018-12-22T08:57:53.935Z,9.56
2018-12-22T08:59:39.512Z,9.61
2018-12-22T09:00:39.465Z,9.64
2018-12-22T09:02:32.426Z,9.52
2018-12-22T09:03:32.327Z,9.56
2018-12-22T09:05:25.761Z,9.52
2018-12-22T09:06:25.705Z,9.57
2018-12-22T09:08:18.590Z,9.58
2018-12-22T09:09:18.580Z,9.64
2018-12-22T09:11:12.121Z,9.76
2018-12-22T09:12:11.955Z,9.73
2018-12-22T09:14:05.088Z,9.56
2018-12-22T09:15:04.812Z,9.49
2018-12-22T09:16:58.328Z,9.35
2018-12-22T09:17:58.159Z,9.42
2018-12-22T09:19:51.052Z,9.30
2018-12-22T09:20:51.019Z,9.23
2018-12-22T09:22:43.919Z,9.16
2018-12-22T09:23:43.879Z,9.13
2018-12-22T09:25:36.788Z,9.15
2018-12-22T09:26:36.718Z,9.23
2018-12-22T09:28:29.671Z,9.28
2018-12-22T09:29:29.592Z,9.28
2018-12-22T09:31:22.472Z,9.25
2018-12-22T09:32:22.434Z,9.32
2018-12-22T09:33:22.444Z,9.27
2018-12-22T09:34:22.439Z,9.31
2018-12-22T09:35:22.436Z,9.24
2018-12-22T09:36:22.423Z,9.21
2018-12-22T09:37:22.418Z,9.25
2018-12-22T09:38:22.412Z,9.24
2018-12-22T09:39:22.412Z,9.24
2018-12-22T09:40:22.401Z,9.25
2018-12-22T09:41:22.399Z,9.32
2018-12-22T09:42:22.392Z,9.42
2018-12-22T09:43:22.589Z,9.45
2018-12-22T09:44:22.383Z,9.56
2018-12-22T09:45:22.375Z,9.60
2018-12-22T09:46:22.372Z,9.97
2018-12-22T09:47:22.365Z,10.46
2018-12-22T09:48:22.363Z,10.47
2018-12-22T09:49:22.361Z,10.56
2018-12-22T09:50:22.354Z,10.46
2018-12-22T09:51:22.357Z,10.26
2018-12-22T09:52:22.355Z,10.51
2018-12-22T09:53:22.353Z,10.12
2018-12-22T09:54:22.357Z,10.06
2018-12-22T09:55:22.371Z,10.12
2018-12-22T09:56:22.343Z,9.94
2018-12-22T09:57:22.345Z,9.78
2018-12-22T09:58:22.337Z,9.67
2018-12-22T09:59:22.343Z,9.63
2018-12-22T10:00:22.335Z,9.57
2018-12-22T10:01:22.333Z,9.46
2018-12-22T10:02:22.334Z,9.43
2018-12-22T10:03:22.331Z,9.40
2018-12-22T10:04:22.326Z,9.34
2018-12-22T10:05:22.329Z,9.35
2018-12-22T10:06:22.321Z,9.45
2018-12-22T10:07:22.317Z,9.42
2018-12-22T10:08:22.314Z,9.40
2018-12-22T10:09:22.336Z,9.34
2018-12-22T10:10:22.320Z,9.46
2018-12-22T10:11:22.317Z,9.48
2018-12-22T10:12:22.302Z,9.46
2018-12-22T10:13:22.300Z,9.43
2018-12-22T10:14:22.300Z,9.42
2018-12-22T10:15:22.318Z,9.49
2018-12-22T10:16:22.292Z,9.56
2018-12-22T10:17:22.290Z,9.50
2018-12-22T10:18:22.287Z,9.53
2018-12-22T10:19:22.288Z,9.57
2018-12-22T10:20:22.279Z,9.53
2018-12-22T10:21:22.273Z,9.52
2018-12-22T10:22:22.270Z,9.49
2018-12-22T10:23:22.268Z,9.52
2018-12-22T10:24:22.264Z,9.52
2018-12-22T10:25:22.270Z,9.60
2018-12-22T10:26:22.258Z,9.56
2018-12-22T10:27:22.548Z,9.68
2018-12-22T10:28:22.252Z,9.64
2018-12-22T10:29:22.270Z,9.57
2018-12-22T10:30:22.270Z,9.60
2018-12-22T10:31:22.243Z,9.56
2018-12-22T10:32:29.658Z,9.64
2018-12-22T10:34:15.334Z,9.61
2018-12-22T10:35:15.169Z,9.70
2018-12-22T10:37:09.357Z,9.73
2018-12-22T10:38:09.084Z,9.70
2018-12-22T10:40:02.871Z,9.71
2018-12-22T10:41:02.435Z,9.71
2018-12-22T10:43:03.635Z,9.68
2018-12-22T10:44:00.166Z,9.75
2018-12-22T10:45:55.947Z,9.78
2018-12-22T10:46:56.381Z,9.83
2018-12-22T10:47:50.733Z,9.81
2018-12-22T10:48:49.766Z,9.73
2018-12-22T10:49:49.952Z,9.64
2018-12-22T10:50:57.194Z,9.64
2018-12-22T10:52:43.666Z,9.64
2018-12-22T10:53:43.109Z,9.56
2018-12-22T10:55:36.803Z,9.50
2018-12-22T10:56:36.597Z,9.52
2018-12-22T10:57:36.544Z,9.56
2018-12-22T10:58:36.687Z,9.58
2018-12-22T10:59:36.420Z,9.46
2018-12-22T11:00:36.444Z,9.56
2018-12-22T11:01:36.461Z,9.45
2018-12-22T11:02:36.440Z,9.48
2018-12-22T11:03:36.435Z,9.57
2018-12-22T11:04:44.439Z,9.50
2018-12-22T11:06:30.466Z,9.57
2018-12-22T11:07:37.420Z,9.45
2018-12-22T11:09:23.720Z,9.40
2018-12-22T11:10:23.571Z,9.39
2018-12-22T11:12:16.754Z,9.45
2018-12-22T11:13:16.701Z,9.42
2018-12-22T11:15:10.229Z,9.46
2018-12-22T11:16:10.179Z,9.32
2018-12-22T11:17:10.089Z,9.43
2018-12-22T11:18:10.239Z,9.39
2018-12-22T11:19:10.016Z,9.43
2018-12-22T11:20:10.020Z,9.42
2018-12-22T11:21:10.006Z,9.43
2018-12-22T11:22:11.567Z,9.48
2018-12-22T11:23:10.019Z,9.49
2018-12-22T11:24:09.995Z,9.48
2018-12-22T11:25:10.000Z,9.38
2018-12-22T11:26:09.991Z,9.40
2018-12-22T11:27:09.997Z,9.49
2018-12-22T11:28:09.985Z,9.45
2018-12-22T11:29:09.979Z,9.40
2018-12-22T11:30:09.975Z,9.40
2018-12-22T11:31:09.978Z,9.40
2018-12-22T11:32:09.968Z,9.42
2018-12-22T11:33:09.965Z,9.39
2018-12-22T11:34:09.962Z,9.45
2018-12-22T11:35:09.962Z,9.39
2018-12-22T11:36:09.956Z,9.34
2018-12-22T11:37:09.955Z,9.45
2018-12-22T11:38:09.950Z,9.45
2018-12-22T11:39:09.954Z,9.40
2018-12-22T11:40:09.941Z,9.43
2018-12-22T11:41:09.937Z,9.46
2018-12-22T11:42:09.936Z,9.57
2018-12-22T11:43:09.931Z,9.42
2018-12-22T11:44:09.948Z,9.46
2018-12-22T11:45:09.924Z,9.50
2018-12-22T11:46:09.920Z,9.45
2018-12-22T11:47:09.926Z,9.53
2018-12-22T11:48:09.912Z,9.52
2018-12-22T11:49:09.909Z,9.49
2018-12-22T11:50:09.904Z,9.52
2018-12-22T11:51:09.898Z,9.52
2018-12-22T11:52:09.899Z,9.58
2018-12-22T11:53:09.904Z,9.56
2018-12-22T11:54:09.892Z,9.56
2018-12-22T11:55:09.884Z,9.45
2018-12-22T11:56:09.881Z,9.43
2018-12-22T11:57:09.884Z,9.45
2018-12-22T11:58:09.890Z,9.42
2018-12-22T11:59:09.875Z,9.43
2018-12-22T12:00:09.870Z,9.35
2018-12-22T12:01:09.881Z,9.40
2018-12-22T12:02:10.197Z,9.32
2018-12-22T12:03:09.858Z,9.38
2018-12-22T12:04:09.853Z,9.30
2018-12-22T12:05:09.854Z,9.45
2018-12-22T12:06:09.845Z,9.39
2018-12-22T12:07:09.844Z,9.34
2018-12-22T12:08:09.841Z,9.31
2018-12-22T12:09:09.842Z,9.35
2018-12-22T12:10:09.836Z,9.45
2018-12-22T12:11:09.829Z,9.31
2018-12-22T12:12:09.826Z,9.42
2018-12-22T12:13:09.822Z,9.30
2018-12-22T12:14:09.874Z,9.32
2018-12-22T12:15:09.824Z,9.35
2018-12-22T12:16:09.897Z,9.39
2018-12-22T12:17:09.809Z,9.38
2018-12-22T12:18:09.817Z,9.25
2018-12-22T12:19:09.802Z,9.25
2018-12-22T12:20:09.797Z,9.25
2018-12-22T12:21:09.796Z,9.18
2018-12-22T12:22:09.808Z,9.12
2018-12-22T12:23:09.785Z,9.13
2018-12-22T12:24:09.782Z,9.15
2018-12-22T12:25:09.785Z,9.15
2018-12-22T12:26:09.779Z,9.15
2018-12-22T12:27:09.775Z,9.05
2018-12-22T12:28:09.766Z,8.97
2018-12-22T12:29:09.776Z,8.99
2018-12-22T12:30:09.775Z,8.97
2018-12-22T12:31:09.756Z,8.96
2018-12-22T12:32:09.752Z,8.99
2018-12-22T12:33:09.748Z,9.01
2018-12-22T12:34:09.749Z,8.96
2018-12-22T12:35:09.746Z,8.93
2018-12-22T12:36:09.738Z,8.93
2018-12-22T12:37:09.732Z,8.81
2018-12-22T12:38:09.730Z,8.81
2018-12-22T12:39:09.738Z,8.88
2018-12-22T12:40:09.729Z,8.84
2018-12-22T12:41:09.726Z,8.81
2018-12-22T12:42:09.715Z,8.84
2018-12-22T12:43:09.711Z,8.83
2018-12-22T12:44:09.705Z,8.88
2018-12-22T12:45:09.705Z,8.87
2018-12-22T12:46:11.557Z,8.86
2018-12-22T12:47:09.701Z,8.88
2018-12-22T12:48:09.712Z,8.84
2018-12-22T12:49:09.690Z,8.88
2018-12-22T12:50:09.684Z,8.81
2018-12-22T12:51:09.679Z,8.68
2018-12-22T12:52:09.682Z,8.75
2018-12-22T12:53:09.988Z,8.73
2018-12-22T12:54:09.671Z,8.71
2018-12-22T12:55:10.842Z,8.69
2018-12-22T12:56:09.665Z,8.63
2018-12-22T12:57:09.662Z,8.62
2018-12-22T12:58:09.677Z,8.68
2018-12-22T12:59:09.649Z,8.53
2018-12-22T13:00:09.645Z,8.55
2018-12-22T13:01:09.647Z,8.57
2018-12-22T13:02:09.638Z,8.65
2018-12-22T13:03:09.632Z,8.55
2018-12-22T13:04:09.630Z,8.53
2018-12-22T13:05:09.625Z,8.54
2018-12-22T13:06:09.623Z,8.54
2018-12-22T13:07:09.620Z,8.48
2018-12-22T13:08:09.614Z,8.63
2018-12-22T13:09:09.616Z,8.57
2018-12-22T13:10:09.605Z,8.55
2018-12-22T13:11:09.605Z,8.53
2018-12-22T13:12:09.630Z,8.47
2018-12-22T13:13:09.594Z,8.48
2018-12-22T13:14:09.592Z,8.40
2018-12-22T13:15:09.596Z,8.45
2018-12-22T13:16:09.581Z,8.36
2018-12-22T13:17:09.580Z,8.39
2018-12-22T13:18:09.612Z,8.55
2018-12-22T13:19:09.568Z,8.37
2018-12-22T13:20:09.579Z,8.40
2018-12-22T13:21:09.566Z,8.33
2018-12-22T13:22:09.562Z,8.33
2018-12-22T13:23:09.556Z,8.42
2018-12-22T13:24:09.550Z,8.45
2018-12-22T13:25:09.546Z,8.35
2018-12-22T13:26:09.553Z,8.39
2018-12-22T13:27:09.547Z,8.37
2018-12-22T13:28:09.534Z,8.37
2018-12-22T13:29:09.528Z,8.45
2018-12-22T13:30:09.526Z,8.39
2018-12-22T13:31:09.520Z,8.53
2018-12-22T13:32:11.061Z,8.48
2018-12-22T13:33:09.879Z,8.54
2018-12-22T13:34:09.510Z,8.54
2018-12-22T13:35:09.526Z,8.58
2018-12-22T13:36:09.500Z,8.57
2018-12-22T13:37:09.509Z,8.60
2018-12-22T13:38:09.514Z,8.60
2018-12-22T13:39:09.493Z,8.53
2018-12-22T13:40:09.485Z,8.53
2018-12-22T13:41:09.494Z,8.44
2018-12-22T13:42:09.478Z,8.51
2018-12-22T13:43:09.479Z,8.44
2018-12-22T13:44:09.467Z,8.51
2018-12-22T13:45:09.466Z,8.44
2018-12-22T13:46:09.461Z,8.54
2018-12-22T13:47:09.458Z,8.40
2018-12-22T13:48:09.624Z,8.50
2018-12-22T13:49:09.923Z,8.42
2018-12-22T13:50:09.570Z,8.40
2018-12-22T13:51:09.537Z,8.37
2018-12-22T13:52:09.434Z,8.40
2018-12-22T13:53:09.431Z,8.42